createdAt,value
2022-09-10T00:01:57.178Z,101584.75
2022-09-10T00:06:58.882Z,101597.69
2022-09-10T00:12:00.651Z,101592.34
2022-09-10T00:17:02.219Z,101597.00
2022-09-10T00:22:03.860Z,101603.97
2022-09-10T00:27:05.426Z,101597.16
2022-09-10T00:32:06.934Z,101594.66
2022-09-10T00:37:08.885Z,101599.81
2022-09-10T00:42:11.679Z,101599.03
2022-09-10T00:47:22.017Z,101607.16
2022-09-10T00:52:23.906Z,101604.75
2022-09-10T00:57:28.071Z,101595.31
2022-09-10T01:02:29.618Z,101591.03
2022-09-10T01:07:33.109Z,101592.84
2022-09-10T01:13:03.817Z,101574.00
2022-09-10T01:18:50.814Z,101577.63
2022-09-10T01:24:33.435Z,101570.81
2022-09-10T01:29:55.515Z,101559.59
2022-09-10T01:35:30.246Z,101549.31
2022-09-10T01:40:34.191Z,101550.25
2022-09-10T01:45:55.030Z,101553.75
2022-09-10T01:51:10.542Z,101546.81
2022-09-10T01:56:44.608Z,101528.78
2022-09-10T02:01:52.543Z,101522.66
2022-09-10T02:06:56.284Z,101520.03
2022-09-10T02:11:58.451Z,101524.31
2022-09-10T02:17:34.528Z,101518.28
2022-09-10T02:22:39.849Z,101515.72
2022-09-10T02:27:42.048Z,101526.06
2022-09-10T02:32:44.582Z,101518.28
2022-09-10T02:37:50.557Z,101516.53
2022-09-10T02:42:52.051Z,101517.44
2022-09-10T02:47:58.634Z,101520.06
2022-09-10T02:53:01.356Z,101512.28
2022-09-10T02:58:03.095Z,101506.34
2022-09-10T03:03:04.773Z,101499.41
2022-09-10T03:08:09.202Z,101511.47
2022-09-10T03:13:12.832Z,101510.53
2022-09-10T03:18:15.680Z,101511.22
2022-09-10T03:23:19.464Z,101529.38
2022-09-10T03:28:21.662Z,101538.91
2022-09-10T03:33:23.820Z,101548.38
2022-09-10T03:38:25.498Z,101547.53
2022-09-10T03:43:27.652Z,101555.28
2022-09-10T03:48:29.700Z,101558.72
2022-09-10T03:53:31.436Z,101576.94
2022-09-10T03:58:33.254Z,101574.34
2022-09-10T04:03:34.886Z,101581.19
2022-09-10T04:08:36.492Z,101585.50
2022-09-10T04:13:41.217Z,101589.81
2022-09-10T04:18:44.982Z,101593.34
2022-09-10T04:23:54.000Z,101599.44
2022-09-10T04:28:56.079Z,101601.88
2022-09-10T04:34:00.144Z,101600.13
2022-09-10T04:39:02.261Z,101606.25
2022-09-10T04:44:06.479Z,101607.13
2022-09-10T04:49:21.729Z,101618.44
2022-09-10T04:54:23.304Z,101624.56
2022-09-10T04:59:25.058Z,101620.28
2022-09-10T05:04:26.699Z,101630.78
2022-09-10T05:09:31.408Z,101633.47
2022-09-10T05:14:35.981Z,101635.13
2022-09-10T05:19:37.637Z,101630.81
2022-09-10T05:24:44.197Z,101635.22
2022-09-10T05:29:45.847Z,101633.56
2022-09-10T05:34:50.615Z,101634.41
2022-09-10T05:39:52.340Z,101636.91
2022-09-10T05:44:54.337Z,101637.84
2022-09-10T05:49:56.349Z,101636.94
2022-09-10T05:54:59.295Z,101642.22
2022-09-10T06:00:02.500Z,101650.91
2022-09-10T06:05:20.147Z,101652.78
2022-09-10T06:10:22.685Z,101667.63
2022-09-10T06:15:26.293Z,101659.84
2022-09-10T06:20:28.893Z,101676.34
2022-09-10T06:25:31.202Z,101674.69
2022-09-10T06:30:33.030Z,101675.41
2022-09-10T06:35:35.478Z,101677.09
2022-09-10T06:40:38.046Z,101672.88
2022-09-10T06:45:40.279Z,101680.72
2022-09-10T06:50:58.729Z,101688.50
2022-09-10T06:56:15.169Z,101693.81
2022-09-10T07:01:19.669Z,101701.56
2022-09-10T07:06:35.822Z,101698.03
2022-09-10T07:11:44.949Z,101699.84
2022-09-10T07:16:50.228Z,101705.47
2022-09-10T07:21:52.218Z,101712.53
2022-09-10T07:26:54.005Z,101703.16
2022-09-10T07:32:00.000Z,101718.00
2022-09-10T07:37:01.899Z,101721.72
2022-09-10T07:42:04.760Z,101712.19
2022-09-10T07:47:10.597Z,101715.69
2022-09-10T07:52:13.462Z,101715.69
2022-09-10T07:57:23.989Z,101715.50
2022-09-10T08:02:25.908Z,101705.97
2022-09-10T08:07:33.220Z,101711.97
2022-09-10T08:12:40.020Z,101712.88
2022-09-10T08:17:42.502Z,101712.78
2022-09-10T08:22:45.142Z,101714.34
2022-09-10T08:27:46.875Z,101722.97
2022-09-10T08:32:49.151Z,101712.44
2022-09-10T08:37:54.573Z,101732.34
2022-09-10T08:42:56.398Z,101722.81
2022-09-10T08:48:06.685Z,101720.16
2022-09-10T08:53:23.730Z,101738.41
2022-09-10T08:58:40.027Z,101734.00
2022-09-10T09:03:45.595Z,101738.22
2022-09-10T09:08:49.598Z,101744.41
2022-09-10T09:14:17.584Z,101745.16
2022-09-10T09:19:34.292Z,101747.63
2022-09-10T09:24:57.847Z,101747.00
2022-09-10T09:30:04.027Z,101759.25
2022-09-10T09:35:32.507Z,101760.41
2022-09-10T09:40:59.105Z,101767.47
2022-09-10T09:46:05.354Z,101773.41
2022-09-10T09:51:13.494Z,101779.50
2022-09-10T09:56:36.228Z,101774.38
2022-09-10T10:01:42.854Z,101778.00
2022-09-10T10:06:54.763Z,101778.84
2022-09-10T10:12:07.222Z,101783.44
2022-09-10T10:17:41.333Z,101790.47
2022-09-10T10:22:45.921Z,101785.19
2022-09-10T10:27:51.295Z,101791.69
2022-09-10T10:32:56.538Z,101781.03
2022-09-10T10:38:05.539Z,101782.78
2022-09-10T10:43:41.715Z,101774.25
2022-09-10T10:49:06.034Z,101777.34
2022-09-10T10:54:49.497Z,101783.06
2022-09-10T11:00:09.386Z,101790.63
2022-09-10T11:05:31.583Z,101801.59
2022-09-10T11:10:47.745Z,101783.53
2022-09-10T11:16:04.331Z,101748.28
2022-09-10T11:21:49.667Z,101727.88
2022-09-10T11:26:54.957Z,101694.78
2022-09-10T11:32:06.690Z,101667.50
2022-09-10T11:37:21.208Z,101630.31
2022-09-10T11:42:45.701Z,101541.44
2022-09-10T11:48:30.253Z,101508.78
2022-09-10T11:53:32.726Z,101521.41
2022-09-10T11:58:43.991Z,101534.91
2022-09-10T12:03:57.773Z,101553.25
2022-09-10T12:09:14.774Z,101547.28
2022-09-10T12:14:19.816Z,101481.56
2022-09-10T12:19:29.304Z,101466.19
2022-09-10T12:24:37.753Z,101416.09
2022-09-10T12:29:40.832Z,101278.97
2022-09-10T12:34:42.389Z,101257.06
2022-09-10T12:39:45.071Z,101301.16
2022-09-10T12:44:47.312Z,101296.97
2022-09-10T12:49:57.189Z,101328.50
2022-09-10T12:55:21.747Z,101279.13
2022-09-10T13:00:47.252Z,101259.09
2022-09-10T13:05:51.592Z,101237.31
2022-09-10T13:10:59.646Z,101206.06
2022-09-10T13:16:03.548Z,101222.56
2022-09-10T13:21:23.355Z,101188.59
2022-09-10T13:26:38.841Z,101181.16
2022-09-10T13:31:44.823Z,101144.63
2022-09-10T13:37:18.867Z,101145.00
2022-09-10T13:42:49.684Z,101165.09
2022-09-10T13:48:01.833Z,101166.09
2022-09-10T13:53:09.262Z,101201.78
2022-09-10T13:58:21.215Z,101213.06
2022-09-10T14:03:25.949Z,101247.84
2022-09-10T14:08:42.223Z,101289.50
2022-09-10T14:14:02.899Z,101299.91
2022-09-10T14:19:14.978Z,101300.75
2022-09-10T14:24:45.660Z,101306.81
2022-09-10T14:29:47.226Z,101315.47
2022-09-10T14:34:48.960Z,101323.28
2022-09-10T14:39:51.711Z,101318.13
2022-09-10T14:44:54.357Z,101311.25
2022-09-10T14:50:32.587Z,101304.28
2022-09-10T14:55:34.132Z,101283.47
2022-09-10T15:00:35.835Z,101272.13
2022-09-10T15:05:38.149Z,101233.78
2022-09-10T15:10:39.657Z,101222.31
2022-09-10T15:15:41.153Z,101223.88
2022-09-10T15:20:43.062Z,101219.69
2022-09-10T15:25:50.558Z,101222.13
2022-09-10T15:30:52.722Z,101228.25
2022-09-10T15:35:54.229Z,101233.56
2022-09-10T15:41:07.470Z,101238.88
2022-09-10T15:46:10.559Z,101228.38
2022-09-10T15:51:17.049Z,101232.91
2022-09-10T15:56:20.115Z,101243.38
2022-09-10T16:01:25.090Z,101255.56
2022-09-10T16:06:27.723Z,101255.56
2022-09-10T16:11:31.374Z,101253.00
2022-09-10T16:16:34.593Z,101263.44
2022-09-10T16:21:37.785Z,101292.13
2022-09-10T16:26:41.369Z,101294.75
2022-09-10T16:31:45.627Z,101315.63
2022-09-10T16:36:51.388Z,101324.31
2022-09-10T16:41:52.942Z,101326.91
2022-09-10T16:46:55.575Z,101333.88
2022-09-10T16:51:57.112Z,101333.00
2022-09-10T16:56:59.789Z,101349.53
2022-09-10T17:02:01.319Z,101355.59
2022-09-10T17:07:03.029Z,101385.97
2022-09-10T17:12:04.954Z,101379.91
2022-09-10T17:17:06.467Z,101405.91
2022-09-10T17:22:07.995Z,101424.13
2022-09-10T17:27:11.411Z,101449.25
2022-09-10T17:32:12.927Z,101461.34
2022-09-10T17:37:15.404Z,101462.09
2022-09-10T17:42:17.562Z,101478.59
2022-09-10T17:47:19.071Z,101490.69
2022-09-10T17:52:21.314Z,101481.91
2022-09-10T17:57:22.781Z,101475.78
2022-09-10T18:02:24.287Z,101491.38
2022-09-10T18:07:25.962Z,101500.88
2022-09-10T18:12:27.527Z,101517.34
2022-09-10T18:17:29.029Z,101551.84
2022-09-10T18:22:30.522Z,101553.44
2022-09-10T18:27:32.017Z,101576.72
2022-09-10T18:32:34.225Z,101590.56
2022-09-10T18:37:35.932Z,101601.69
2022-09-10T18:42:38.178Z,101621.59
2022-09-10T18:47:44.951Z,101633.75
2022-09-10T18:52:46.917Z,101644.06
2022-09-10T18:57:48.475Z,101647.53
2022-09-10T19:02:50.285Z,101648.50
2022-09-10T19:07:51.968Z,101658.97
2022-09-10T19:12:53.527Z,101663.34
2022-09-10T19:17:55.244Z,101673.84
2022-09-10T19:22:56.909Z,101672.91
2022-09-10T19:27:58.498Z,101687.66
2022-09-10T19:33:00.015Z,101704.13
2022-09-10T19:38:15.759Z,101713.63
2022-09-10T19:43:23.397Z,101735.28
2022-09-10T19:48:24.953Z,101731.88
2022-09-10T19:53:27.054Z,101725.84
2022-09-10T19:58:28.548Z,101729.28
2022-09-10T20:03:30.114Z,101731.88
2022-09-10T20:08:34.005Z,101730.06
2022-09-10T20:13:36.674Z,101745.59
2022-09-10T20:18:38.444Z,101753.31
2022-09-10T20:23:45.708Z,101754.16
2022-09-10T20:28:53.376Z,101762.72
2022-09-10T20:33:57.512Z,101767.03
2022-09-10T20:38:59.087Z,101777.38
2022-09-10T20:44:02.015Z,101780.75
2022-09-10T20:49:03.579Z,101793.56
2022-09-10T20:54:07.354Z,101804.69
2022-09-10T20:59:16.241Z,101814.81
2022-09-10T21:04:21.926Z,101819.88
2022-09-10T21:09:25.476Z,101820.50
2022-09-10T21:14:27.601Z,101826.44
2022-09-10T21:19:35.130Z,101844.56
2022-09-10T21:24:39.678Z,101852.25
2022-09-10T21:29:41.167Z,101853.94
2022-09-10T21:34:42.784Z,101864.00
2022-09-10T21:39:44.301Z,101870.03
2022-09-10T21:45:11.290Z,101863.72
2022-09-10T21:50:14.975Z,101878.28
2022-09-10T21:55:16.437Z,101878.16
2022-09-10T22:00:19.078Z,101879.66
2022-09-10T22:05:21.622Z,101884.94
2022-09-10T22:10:23.240Z,101895.66
2022-09-10T22:15:25.066Z,101913.47
2022-09-10T22:20:26.530Z,102063.59
2022-09-10T22:25:28.395Z,102065.97
2022-09-10T22:30:29.990Z,102068.09
2022-09-10T22:35:31.521Z,102079.00
2022-09-10T22:40:33.502Z,102084.91
2022-09-10T22:45:35.029Z,102081.72
2022-09-10T22:50:36.672Z,102086.63
2022-09-10T22:55:38.153Z,102081.91
2022-09-10T23:00:39.713Z,102081.88
2022-09-10T23:05:41.737Z,102087.41
2022-09-10T23:10:44.576Z,102111.84
2022-09-10T23:15:46.315Z,102127.94
2022-09-10T23:20:47.868Z,102145.50
2022-09-10T23:25:49.771Z,102167.63
2022-09-10T23:30:52.217Z,102182.63
2022-09-10T23:35:53.941Z,102188.22
2022-09-10T23:40:56.089Z,102184.50
2022-09-10T23:45:59.026Z,102195.06
2022-09-10T23:51:04.140Z,102207.47
2022-09-10T23:56:06.117Z,102223.69
